Time;durP1;ratioP1;P1;durP2;ratioP2;P2;SDS_P1;SDS_P2;PMS_P1;PMS_P2;Temp;Humidity;BMP_temperature;BMP_pressure;BME280_temperature;BME280_humidity;BME280_pressure;Samples;Min_cycle;Max_cycle;Signal;HPM_P1;HPM_P2
2021/03/02 00:02:17;;;;;;;1.38;1.00;;;17.20;43.00;;;;;;4945067;29;20159;-82
2021/03/02 00:05:03;;;;;;;1.83;1.13;;;17.20;42.90;;;;;;4945245;29;20222;-82
2021/03/02 00:07:29;;;;;;;1.38;1.27;;;17.20;43.00;;;;;;4943852;29;20624;-82
2021/03/02 00:09:57;;;;;;;2.75;1.40;;;17.20;43.00;;;;;;4946376;29;20158;-82
2021/03/02 00:12:32;;;;;;;2.40;1.20;;;17.20;43.10;;;;;;4946333;29;20173;-82
2021/03/02 00:15:01;;;;;;;1.67;1.30;;;17.20;43.10;;;;;;4946969;29;20535;-81
2021/03/02 00:17:48;;;;;;;2.13;1.10;;;17.20;43.10;;;;;;4947620;29;20618;-82
2021/03/02 00:20:24;;;;;;;2.00;1.10;;;17.20;43.00;;;;;;4947512;29;20158;-82
2021/03/02 00:22:57;;;;;;;1.70;1.20;;;17.20;43.10;;;;;;4930723;29;20570;-82
2021/03/02 00:25:38;;;;;;;3.47;1.30;;;17.20;43.10;;;;;;4945827;29;20173;-81
2021/03/02 00:28:08;;;;;;;1.48;1.20;;;17.20;43.10;;;;;;4947548;29;20158;-81
2021/03/02 00:30:35;;;;;;;1.73;1.10;;;17.20;43.10;;;;;;4946739;29;20166;-81
2021/03/02 00:33:04;;;;;;;2.90;1.30;;;17.20;43.10;;;;;;4931302;29;20177;-81
2021/03/02 00:35:30;;;;;;;2.22;1.10;;;17.20;43.20;;;;;;4946649;29;20189;-81
2021/03/02 00:37:56;;;;;;;1.88;1.10;;;17.10;43.20;;;;;;4946983;29;20166;-82
2021/03/02 00:40:21;;;;;;;1.55;1.30;;;17.10;43.20;;;;;;4947855;29;20229;-81
2021/03/02 00:42:48;;;;;;;1.85;1.30;;;17.10;43.20;;;;;;4946786;29;20194;-81
2021/03/02 00:45:14;;;;;;;2.63;1.30;;;17.10;43.20;;;;;;4915789;29;20166;-82
2021/03/02 00:47:40;;;;;;;1.40;1.10;;;17.20;43.20;;;;;;4915494;29;20194;-81
2021/03/02 00:50:07;;;;;;;1.60;1.48;;;17.10;43.90;;;;;;4947030;29;20163;-81
2021/03/02 00:52:33;;;;;;;2.22;1.15;;;17.10;43.30;;;;;;4946995;29;20162;-81
2021/03/02 00:55:01;;;;;;;1.20;1.10;;;17.10;43.30;;;;;;4946389;29;20161;-81
2021/03/02 00:57:28;;;;;;;1.55;1.17;;;17.10;43.30;;;;;;4948149;29;20188;-82
2021/03/02 00:59:56;;;;;;;1.77;1.35;;;17.10;43.30;;;;;;4947259;29;20177;-81
2021/03/02 01:02:22;;;;;;;1.30;1.20;;;17.10;43.20;;;;;;4915026;29;20185;-82
2021/03/02 01:04:51;;;;;;;2.78;1.50;;;17.10;43.30;;;;;;4915187;29;20163;-81
2021/03/02 01:07:16;;;;;;;2.42;1.50;;;17.10;43.40;;;;;;4947456;29;20161;-81
2021/03/02 01:09:43;;;;;;;2.08;1.10;;;17.10;43.40;;;;;;4947832;29;20718;-82
2021/03/02 01:12:09;;;;;;;1.40;1.00;;;17.10;43.40;;;;;;4930837;29;20158;-81
2021/03/02 01:14:35;;;;;;;2.65;1.20;;;17.10;43.40;;;;;;4930798;29;20518;-81
2021/03/02 01:17:00;;;;;;;5.20;1.23;;;17.10;43.50;;;;;;4930482;29;20174;-81
2021/03/02 01:19:26;;;;;;;1.50;1.17;;;17.10;43.50;;;;;;4946646;29;20166;-81
2021/03/02 01:21:53;;;;;;;2.85;1.25;;;17.10;43.50;;;;;;4930854;29;20170;-81
2021/03/02 01:24:19;;;;;;;1.10;1.00;;;17.10;43.50;;;;;;4930439;29;20205;-81
2021/03/02 01:26:44;;;;;;;1.50;1.27;;;17.10;43.50;;;;;;4930690;29;20641;-81
2021/03/02 01:29:12;;;;;;;1.27;1.10;;;17.10;43.40;;;;;;4948296;29;20652;-81
2021/03/02 01:31:38;;;;;;;1.20;1.10;;;17.10;43.50;;;;;;4948045;29;20165;-81
2021/03/02 01:34:07;;;;;;;2.17;1.30;;;17.10;43.50;;;;;;4914893;29;20170;-82
2021/03/02 01:36:34;;;;;;;2.40;1.20;;;17.10;43.50;;;;;;4947853;29;20162;-81
2021/03/02 01:38:59;;;;;;;1.95;1.25;;;17.10;43.60;;;;;;4930120;29;20249;-81
2021/03/02 01:41:25;;;;;;;2.17;1.20;;;17.10;43.60;;;;;;4930650;29;20226;-81
2021/03/02 01:43:51;;;;;;;1.77;1.30;;;17.10;43.70;;;;;;4946192;29;20201;-81
2021/03/02 01:46:16;;;;;;;1.65;1.20;;;17.00;44.30;;;;;;4947417;29;20166;-81
2021/03/02 01:48:43;;;;;;;1.10;1.00;;;17.00;43.70;;;;;;4914683;29;20261;-82
2021/03/02 01:51:09;;;;;;;1.48;1.20;;;17.00;43.70;;;;;;4946555;29;20182;-81
2021/03/02 01:53:35;;;;;;;1.60;1.45;;;17.00;43.80;;;;;;4946240;29;20158;-81
2021/03/02 01:56:01;;;;;;;1.90;1.30;;;17.00;43.80;;;;;;4947494;29;20162;-81
2021/03/02 01:58:27;;;;;;;1.50;1.20;;;17.00;43.70;;;;;;4947594;29;20245;-81
2021/03/02 02:00:57;;;;;;;2.15;1.10;;;17.00;43.70;;;;;;4946662;29;20158;-81
2021/03/02 02:03:30;;;;;;;1.27;1.05;;;17.00;43.80;;;;;;4931041;29;20258;-81
2021/03/02 02:06:05;;;;;;;3.50;1.00;;;17.00;43.80;;;;;;4946438;29;20475;-82
2021/03/02 02:08:49;;;;;;;1.60;1.10;;;17.00;43.80;;;;;;4930980;29;20178;-81
2021/03/02 02:11:50;;;;;;;2.03;1.10;;;17.00;43.80;;;;;;4930326;29;20174;-82
2021/03/02 02:14:27;;;;;;;1.70;1.20;;;17.10;43.90;;;;;;4945986;29;20170;-81
2021/03/02 02:16:56;;;;;;;1.92;1.30;;;17.00;43.80;;;;;;4916369;29;20178;-81
2021/03/02 02:20:00;;;;;;;1.33;1.00;;;17.00;43.80;;;;;;4931950;29;20197;-81
2021/03/02 02:23:04;;;;;;;1.17;1.00;;;17.00;43.80;;;;;;4950753;29;20272;-81
2021/03/02 02:25:56;;;;;;;1.58;1.33;;;17.00;43.80;;;;;;4950907;29;20167;-81
2021/03/02 02:28:22;;;;;;;2.63;1.48;;;17.00;43.90;;;;;;4935006;29;20173;-81
2021/03/02 02:30:52;;;;;;;1.63;1.00;;;17.00;43.80;;;;;;4918202;29;20245;-82
2021/03/02 02:33:18;;;;;;;1.42;1.23;;;17.00;43.80;;;;;;4918188;29;20170;-81
2021/03/02 02:35:45;;;;;;;1.25;1.15;;;17.00;43.90;;;;;;4934373;29;20302;-81
2021/03/02 02:38:11;;;;;;;1.20;1.10;;;17.00;43.90;;;;;;4934546;29;20158;-81
2021/03/02 02:40:37;;;;;;;1.27;1.08;;;17.00;43.90;;;;;;4934081;29;20328;-81
2021/03/02 02:43:03;;;;;;;2.65;1.10;;;17.00;43.90;;;;;;4917577;29;20194;-81
2021/03/02 02:45:29;;;;;;;1.30;1.20;;;17.00;44.00;;;;;;4950797;29;20186;-81
2021/03/02 02:47:54;;;;;;;4.15;1.30;;;17.00;43.90;;;;;;4918343;29;20170;-81
2021/03/02 02:50:20;;;;;;;1.80;1.23;;;17.00;44.00;;;;;;4933647;29;20166;-82
2021/03/02 02:52:46;;;;;;;1.10;1.00;;;17.00;44.00;;;;;;4934309;29;20166;-81
2021/03/02 02:55:23;;;;;;;1.30;1.20;;;17.00;44.00;;;;;;4948847;29;20189;-81
2021/03/02 02:57:50;;;;;;;1.55;1.20;;;17.00;44.00;;;;;;4948942;29;20181;-81
2021/03/02 03:00:19;;;;;;;1.25;1.02;;;17.00;44.10;;;;;;4948767;29;20221;-81
2021/03/02 03:02:47;;;;;;;1.30;1.20;;;17.00;44.10;;;;;;4948500;29;20202;-81
2021/03/02 03:05:15;;;;;;;1.45;1.02;;;17.00;44.10;;;;;;4950399;29;20158;-82
2021/03/02 03:08:12;;;;;;;2.83;1.10;;;17.00;44.10;;;;;;4948496;29;20167;-81
2021/03/02 03:10:47;;;;;;;1.30;1.20;;;17.00;44.10;;;;;;4876232;29;20192;-81
2021/03/02 03:13:21;;;;;;;1.55;1.10;;;17.00;44.10;;;;;;4860262;29;20200;-81
2021/03/02 03:15:51;;;;;;;2.00;1.10;;;16.90;44.10;;;;;;4876285;29;20192;-81
2021/03/02 03:18:55;;;;;;;1.73;1.10;;;17.00;44.20;;;;;;4875763;29;20179;-81
2021/03/02 03:21:21;;;;;;;1.73;1.20;;;16.90;44.20;;;;;;4891878;29;20212;-81
2021/03/02 03:23:48;;;;;;;1.73;1.02;;;16.90;44.30;;;;;;4875906;29;20195;-81
2021/03/02 03:26:34;;;;;;;1.67;1.20;;;16.90;44.20;;;;;;4876173;29;20178;-82
2021/03/02 03:29:19;;;;;;;1.90;1.38;;;16.90;44.20;;;;;;4875986;29;20176;-81
2021/03/02 03:31:46;;;;;;;1.88;1.27;;;16.90;44.20;;;;;;4875878;29;20167;-81
2021/03/02 03:34:21;;;;;;;1.30;1.08;;;16.90;44.20;;;;;;4875938;29;20256;-81
2021/03/02 03:36:48;;;;;;;2.50;1.10;;;16.90;44.30;;;;;;4891553;29;20207;-81
2021/03/02 03:39:13;;;;;;;3.25;1.45;;;16.90;44.20;;;;;;4861197;29;20295;-81
2021/03/02 03:41:40;;;;;;;1.83;1.30;;;17.00;44.20;;;;;;4891520;29;20676;-81
2021/03/02 03:44:06;;;;;;;2.13;1.10;;;17.00;44.20;;;;;;4876037;29;20191;-81
2021/03/02 03:46:31;;;;;;;1.25;1.15;;;17.00;44.20;;;;;;4903982;29;20210;-81
2021/03/02 03:48:59;;;;;;;2.05;1.20;;;17.00;44.20;;;;;;4914025;29;20186;-81
2021/03/02 03:51:26;;;;;;;1.52;1.20;;;17.00;44.20;;;;;;4898678;29;20610;-81
2021/03/02 03:53:53;;;;;;;1.58;1.25;;;16.90;44.20;;;;;;4914125;29;20174;-81
2021/03/02 03:56:21;;;;;;;3.22;1.25;;;16.90;44.30;;;;;;4913962;29;20167;-81
2021/03/02 03:58:47;;;;;;;2.22;1.10;;;16.90;44.30;;;;;;4914325;29;20174;-81
2021/03/02 04:01:14;;;;;;;1.13;1.02;;;16.90;44.40;;;;;;4898096;29;20158;-81
2021/03/02 04:03:39;;;;;;;1.08;0.98;;;16.90;44.40;;;;;;4927434;29;20250;-82
2021/03/02 04:06:05;;;;;;;2.08;1.10;;;17.00;44.40;;;;;;4894982;29;20178;-82
2021/03/02 04:08:31;;;;;;;1.60;1.10;;;16.90;44.30;;;;;;4910390;29;20246;-82
2021/03/02 04:10:58;;;;;;;2.05;1.35;;;16.90;44.40;;;;;;4894425;29;20178;-82
2021/03/02 04:13:27;;;;;;;1.65;1.00;;;17.00;44.40;;;;;;4894765;29;20158;-82
2021/03/02 04:15:55;;;;;;;1.48;1.13;;;17.00;44.40;;;;;;4927717;29;20199;-82
2021/03/02 04:18:25;;;;;;;1.40;1.10;;;16.90;44.40;;;;;;4910495;29;20174;-82
2021/03/02 04:20:52;;;;;;;1.23;1.00;;;16.90;44.40;;;;;;4909994;29;20169;-81
2021/03/02 04:23:19;;;;;;;1.42;0.98;;;16.90;44.40;;;;;;4894431;29;20198;-82
2021/03/02 04:25:45;;;;;;;2.83;1.20;;;16.90;44.40;;;;;;4910248;29;20203;-82
2021/03/02 04:28:11;;;;;;;1.95;1.27;;;16.90;44.50;;;;;;4910649;29;20167;-82
2021/03/02 04:30:46;;;;;;;1.90;1.20;;;16.90;44.50;;;;;;4909203;29;20183;-82
2021/03/02 04:33:21;;;;;;;1.42;1.10;;;16.90;44.50;;;;;;4926400;29;20166;-82
2021/03/02 04:35:47;;;;;;;1.63;1.40;;;16.90;44.60;;;;;;4910130;29;20170;-82
2021/03/02 04:38:21;;;;;;;1.05;0.95;;;16.90;44.60;;;;;;4927005;29;20232;-83
2021/03/02 04:40:47;;;;;;;1.98;1.20;;;16.90;44.60;;;;;;4943445;29;20232;-81
2021/03/02 04:43:13;;;;;;;2.10;1.15;;;16.90;44.70;;;;;;4944636;29;20190;-81
2021/03/02 04:45:40;;;;;;;1.73;1.10;;;16.90;44.70;;;;;;4947409;29;20161;-81
2021/03/02 04:48:06;;;;;;;1.45;0.90;;;16.90;44.50;;;;;;4947548;29;20245;-82
2021/03/02 04:50:33;;;;;;;2.08;0.95;;;16.90;44.60;;;;;;4946932;29;20173;-80
2021/03/02 04:53:01;;;;;;;1.02;0.93;;;16.90;44.60;;;;;;4945710;29;20268;-80
2021/03/02 04:55:27;;;;;;;1.30;1.05;;;16.90;44.50;;;;;;4929926;29;20182;-80
2021/03/02 04:57:56;;;;;;;2.22;1.10;;;16.90;44.50;;;;;;4944659;29;20166;-79
2021/03/02 05:00:22;;;;;;;1.00;0.90;;;17.10;44.20;;;;;;4947526;29;20643;-80
2021/03/02 05:02:47;;;;;;;1.50;1.08;;;17.00;44.30;;;;;;4945239;29;20174;-79
2021/03/02 05:05:16;;;;;;;1.42;0.90;;;17.10;44.10;;;;;;4946793;29;20206;-80
2021/03/02 05:07:42;;;;;;;1.70;1.25;;;17.20;43.70;;;;;;4945541;29;20186;-82
2021/03/02 05:10:10;;;;;;;1.75;1.10;;;17.20;43.80;;;;;;4945379;29;20820;-81
2021/03/02 05:12:37;;;;;;;1.08;0.98;;;17.20;43.90;;;;;;4945988;29;20158;-80
2021/03/02 05:15:06;;;;;;;1.35;1.20;;;17.10;43.90;;;;;;4947663;29;20537;-80
2021/03/02 05:17:33;;;;;;;1.08;0.98;;;17.10;43.90;;;;;;4947129;29;20166;-79
2021/03/02 05:20:08;;;;;;;1.20;0.85;;;17.10;43.90;;;;;;4930542;29;20178;-80
2021/03/02 05:22:35;;;;;;;1.33;1.05;;;17.10;44.00;;;;;;4945250;29;20165;-80
2021/03/02 05:25:02;;;;;;;2.45;1.00;;;17.10;44.00;;;;;;4945664;29;20173;-81
2021/03/02 05:27:28;;;;;;;1.63;1.13;;;17.10;44.10;;;;;;4945871;29;20162;-80
2021/03/02 05:29:54;;;;;;;1.10;0.82;;;17.10;43.90;;;;;;4945905;29;20196;-80
2021/03/02 05:32:23;;;;;;;2.45;1.27;;;17.10;43.90;;;;;;4946782;29;20530;-81
2021/03/02 05:34:48;;;;;;;1.25;1.10;;;17.10;43.90;;;;;;4942955;29;20162;-81
2021/03/02 05:37:15;;;;;;;1.08;0.95;;;17.20;43.90;;;;;;4944636;29;20526;-81
2021/03/02 05:39:40;;;;;;;2.38;1.20;;;17.20;43.90;;;;;;4943301;29;20308;-81
2021/03/02 05:42:07;;;;;;;1.17;1.00;;;17.20;43.90;;;;;;4942095;29;20212;-80
2021/03/02 05:44:33;;;;;;;1.55;0.90;;;17.00;44.00;;;;;;4944225;29;20226;-81
2021/03/02 05:47:00;;;;;;;1.23;1.13;;;17.10;43.90;;;;;;4942490;29;20163;-81
2021/03/02 05:49:25;;;;;;;1.08;1.00;;;17.10;43.90;;;;;;4944197;29;20154;-81
2021/03/02 05:51:52;;;;;;;0.82;0.73;;;17.10;43.80;;;;;;4942882;29;20585;-81
2021/03/02 05:54:18;;;;;;;2.47;1.20;;;17.10;43.90;;;;;;4945390;29;20277;-81
2021/03/02 05:56:46;;;;;;;1.00;0.90;;;17.10;43.90;;;;;;4930122;29;20162;-80
2021/03/02 05:59:12;;;;;;;1.60;1.08;;;17.10;43.80;;;;;;4948631;29;20222;-82
2021/03/02 06:01:39;;;;;;;1.08;0.98;;;17.20;43.70;;;;;;4947206;29;20167;-80
2021/03/02 06:04:16;;;;;;;1.83;0.95;;;17.20;43.80;;;;;;4950510;29;20249;-82
2021/03/02 06:06:57;;;;;;;1.05;0.95;;;17.20;43.60;;;;;;4949759;29;20181;-84
2021/03/02 06:09:23;;;;;;;0.82;0.80;;;17.20;43.60;;;;;;4949764;29;20170;-82
2021/03/02 06:11:59;;;;;;;0.85;0.85;;;17.20;43.60;;;;;;4948606;29;20169;-81
2021/03/02 06:14:28;;;;;;;1.50;0.90;;;17.10;43.70;;;;;;4948809;29;20173;-82
2021/03/02 06:16:53;;;;;;;0.85;0.73;;;17.10;43.60;;;;;;4948493;29;20162;-82
2021/03/02 06:19:42;;;;;;;1.30;0.90;;;17.20;43.50;;;;;;4949537;29;20163;-82
2021/03/02 06:22:33;;;;;;;1.65;1.13;;;17.10;43.50;;;;;;4949630;29;20181;-82
2021/03/02 06:25:00;;;;;;;0.85;0.80;;;17.20;43.70;;;;;;4950578;29;20178;-82
2021/03/02 06:27:39;;;;;;;1.10;1.00;;;17.10;43.70;;;;;;4949019;29;20313;-81
2021/03/02 06:30:12;;;;;;;1.02;0.90;;;17.10;43.80;;;;;;4948452;29;20173;-81
2021/03/02 06:32:47;;;;;;;0.70;0.70;;;17.10;43.60;;;;;;4948363;29;20181;-82
2021/03/02 06:35:28;;;;;;;1.00;0.88;;;17.20;43.40;;;;;;4948889;29;20558;-81
2021/03/02 06:37:55;;;;;;;1.30;0.85;;;17.20;43.40;;;;;;4948267;29;20186;-81
2021/03/02 06:40:42;;;;;;;0.82;0.82;;;17.20;43.40;;;;;;4933792;29;20225;-81
2021/03/02 06:43:28;;;;;;;0.95;0.82;;;17.30;43.20;;;;;;4949604;29;20692;-81
2021/03/02 06:45:54;;;;;;;0.85;0.73;;;17.30;43.30;;;;;;4951074;29;20165;-81
2021/03/02 06:48:24;;;;;;;1.02;0.85;;;17.20;43.30;;;;;;4918482;29;20166;-81
2021/03/02 06:50:50;;;;;;;1.15;0.88;;;17.20;43.40;;;;;;4933619;29;20178;-81
2021/03/02 06:53:17;;;;;;;0.90;0.80;;;17.20;43.40;;;;;;4934222;29;20178;-81
2021/03/02 06:55:43;;;;;;;0.93;0.77;;;17.20;43.50;;;;;;4918747;29;20166;-81
2021/03/02 06:58:19;;;;;;;1.45;1.10;;;17.20;43.50;;;;;;4917290;29;20178;-81
2021/03/02 07:00:55;;;;;;;0.88;0.75;;;17.20;43.50;;;;;;4933170;29;20240;-81
2021/03/02 07:03:26;;;;;;;0.73;0.73;;;17.20;43.40;;;;;;4917591;29;20237;-81
2021/03/02 07:05:53;;;;;;;1.17;0.90;;;17.20;43.50;;;;;;4916898;29;20170;-81
2021/03/02 07:08:36;;;;;;;1.80;0.80;;;17.10;43.50;;;;;;4917843;29;20523;-82
2021/03/02 07:11:05;;;;;;;0.90;0.90;;;17.20;43.50;;;;;;4934090;29;20178;-81
2021/03/02 07:13:34;;;;;;;1.00;0.80;;;17.30;43.20;;;;;;4934057;29;20202;-81
2021/03/02 07:16:00;;;;;;;0.95;0.88;;;17.20;43.20;;;;;;4932965;29;20178;-81
2021/03/02 07:18:28;;;;;;;1.13;0.82;;;17.30;43.20;;;;;;4933746;29;20197;-81
2021/03/02 07:21:00;;;;;;;1.58;1.20;;;17.20;43.20;;;;;;4933838;29;20166;-81
2021/03/02 07:23:30;;;;;;;1.08;0.80;;;17.20;43.30;;;;;;4933976;29;20224;-81
2021/03/02 07:26:00;;;;;;;2.22;0.85;;;17.20;43.20;;;;;;4934080;29;20178;-81
2021/03/02 07:28:30;;;;;;;0.95;0.82;;;17.20;43.30;;;;;;4948728;29;20165;-81
2021/03/02 07:30:58;;;;;;;0.88;0.70;;;17.20;43.20;;;;;;4933044;29;20178;-81
2021/03/02 07:33:25;;;;;;;1.30;0.80;;;17.20;43.20;;;;;;4934049;29;20220;-81
2021/03/02 07:35:57;;;;;;;1.27;1.00;;;17.30;43.10;;;;;;4932921;29;20279;-81
2021/03/02 07:38:23;;;;;;;0.90;0.77;;;17.30;43.10;;;;;;4933647;29;20173;-81
2021/03/02 07:40:51;;;;;;;2.08;0.90;;;17.20;43.20;;;;;;4932767;29;20294;-81
2021/03/02 07:43:29;;;;;;;1.00;0.90;;;17.20;43.20;;;;;;4933244;29;20212;-81
2021/03/02 07:45:58;;;;;;;0.70;0.70;;;17.20;43.10;;;;;;4950555;29;20193;-81
2021/03/02 07:48:44;;;;;;;0.98;0.68;;;17.20;43.20;;;;;;4933794;29;20174;-81
2021/03/02 07:51:23;;;;;;;0.82;0.70;;;17.20;43.20;;;;;;4931239;29;20321;-81
2021/03/02 07:54:15;;;;;;;1.30;0.70;;;17.20;43.10;;;;;;4931734;29;20170;-81
2021/03/02 07:56:43;;;;;;;0.70;0.70;;;17.20;43.20;;;;;;4948349;29;20177;-81
2021/03/02 07:59:12;;;;;;;1.00;0.80;;;17.20;43.10;;;;;;4949539;29;20172;-81
2021/03/02 08:01:39;;;;;;;0.70;0.70;;;17.30;42.80;;;;;;4947533;29;20246;-81
2021/03/02 08:04:24;;;;;;;1.13;0.80;;;17.20;43.10;;;;;;4932910;29;20209;-80
2021/03/02 08:06:50;;;;;;;0.90;0.70;;;17.30;43.00;;;;;;4948743;29;20151;-81
2021/03/02 08:09:25;;;;;;;1.98;0.70;;;17.30;42.90;;;;;;4916971;29;20166;-81
2021/03/02 08:11:54;;;;;;;0.70;0.70;;;17.30;43.00;;;;;;4949897;29;20154;-81
2021/03/02 08:14:28;;;;;;;0.77;0.77;;;17.20;43.00;;;;;;4948475;29;20574;-82
2021/03/02 08:16:58;;;;;;;0.70;0.70;;;17.30;43.00;;;;;;4947530;29;20201;-81
2021/03/02 08:19:37;;;;;;;0.70;0.60;;;17.30;43.10;;;;;;4948015;29;20163;-81
2021/03/02 08:22:16;;;;;;;1.38;0.88;;;17.20;43.00;;;;;;4949070;29;20165;-81
2021/03/02 08:25:35;;;;;;;1.55;1.02;;;17.30;43.20;;;;;;4947648;29;20241;-84
2021/03/02 08:28:18;;;;;;;0.80;0.70;;;17.20;43.10;;;;;;4879285;29;20207;-82
2021/03/02 08:30:51;;;;;;;3.83;0.80;;;17.30;42.90;;;;;;4889231;29;20187;-82
2021/03/02 08:33:31;;;;;;;1.05;0.70;;;17.30;43.10;;;;;;4887415;29;20580;-81
2021/03/02 08:36:14;;;;;;;0.68;0.60;;;17.30;43.00;;;;;;4838980;29;20192;-82
2021/03/02 08:38:40;;;;;;;0.85;0.60;;;17.30;43.10;;;;;;4873860;29;20252;-81
2021/03/02 08:41:33;;;;;;;0.80;0.70;;;17.30;43.00;;;;;;4870744;29;20176;-81
2021/03/02 08:44:37;;;;;;;0.82;0.70;;;17.40;43.10;;;;;;4836734;29;20217;-81
2021/03/02 08:47:04;;;;;;;1.77;0.80;;;17.40;43.00;;;;;;4816509;29;20225;-82
2021/03/02 08:49:31;;;;;;;0.98;0.70;;;17.40;43.00;;;;;;4816164;29;20194;-81
2021/03/02 08:52:03;;;;;;;1.48;0.82;;;17.40;43.10;;;;;;4800730;29;20183;-81
2021/03/02 08:54:29;;;;;;;2.28;0.80;;;17.40;42.90;;;;;;4800958;29;20197;-81
2021/03/02 08:57:36;;;;;;;0.63;0.57;;;17.40;42.80;;;;;;4815945;29;20191;-81
2021/03/02 09:03:22;;;;;;;1.45;0.75;;;17.40;42.90;;;;;;4826766;29;20616;-81
2021/03/02 09:06:29;;;;;;;0.80;0.70;;;17.40;43.00;;;;;;4855781;29;20167;-81
2021/03/02 09:09:21;;;;;;;0.80;0.80;;;17.40;43.60;;;;;;4770503;29;20190;-81
2021/03/02 09:11:57;;;;;;;1.55;0.90;;;17.40;43.00;;;;;;4831637;29;20191;-81
2021/03/02 09:14:30;;;;;;;0.63;0.63;;;17.40;42.80;;;;;;4826586;29;20195;-82
2021/03/02 09:17:02;;;;;;;0.68;0.63;;;17.40;42.90;;;;;;4837190;29;20189;-81
2021/03/02 09:19:37;;;;;;;0.85;0.70;;;17.40;43.00;;;;;;4852661;29;20170;-81
2021/03/02 09:22:09;;;;;;;0.93;0.80;;;17.40;43.00;;;;;;4822509;29;20695;-81
2021/03/02 09:24:42;;;;;;;2.72;0.85;;;17.50;43.60;;;;;;4821996;29;20706;-82
2021/03/02 09:27:15;;;;;;;1.02;0.68;;;17.40;42.90;;;;;;4838321;29;20162;-82
2021/03/02 09:29:51;;;;;;;0.70;0.70;;;17.50;43.20;;;;;;4828236;29;20189;-81
2021/03/02 09:32:26;;;;;;;2.05;0.63;;;17.70;42.20;;;;;;4846876;29;20179;-82
2021/03/02 09:35:18;;;;;;;0.85;0.80;;;17.70;42.20;;;;;;4862890;29;20171;-81
2021/03/02 09:37:49;;;;;;;1.40;0.80;;;17.70;42.30;;;;;;4860353;29;20192;-81
2021/03/02 09:44:34;;;;;;;1.20;0.75;;;17.60;42.30;;;;;;4942206;29;20224;-81
2021/03/02 09:47:26;;;;;;;1.15;0.75;;;17.70;42.20;;;;;;4950921;29;20226;-81
2021/03/02 09:50:04;;;;;;;1.52;0.90;;;17.70;42.20;;;;;;4936406;29;20551;-81
2021/03/02 09:53:17;;;;;;;1.73;0.60;;;17.70;42.50;;;;;;4952794;29;20154;-81
2021/03/02 09:55:57;;;;;;;1.33;0.70;;;17.70;42.40;;;;;;4894693;29;20190;-82
2021/03/02 09:58:46;;;;;;;1.85;0.60;;;17.70;43.40;;;;;;4951691;29;20248;-82
2021/03/02 10:01:26;;;;;;;1.08;0.60;;;17.60;42.70;;;;;;4950547;29;20232;-82
2021/03/02 10:04:06;;;;;;;1.40;0.70;;;17.60;42.70;;;;;;4950767;29;20213;-82
2021/03/02 10:06:52;;;;;;;2.13;0.70;;;17.70;42.60;;;;;;4934343;29;20180;-83
2021/03/02 10:09:36;;;;;;;0.60;0.60;;;17.70;42.40;;;;;;4870118;29;20189;-82
2021/03/02 10:12:21;;;;;;;0.73;0.68;;;17.70;42.30;;;;;;4946515;29;20735;-82
2021/03/02 10:18:33;;;;;;;1.77;0.70;;;17.80;42.20;;;;;;4946312;29;20169;-82
2021/03/02 10:21:10;;;;;;;0.77;0.52;;;17.80;42.30;;;;;;4952998;29;20205;-81
2021/03/02 10:34:33;;;;;;;0.60;0.60;;;17.80;42.20;;;;;;4835423;29;20253;-81
2021/03/02 10:37:45;;;;;;;1.13;0.70;;;17.90;42.00;;;;;;4820309;29;20569;-81
2021/03/02 10:44:04;;;;;;;3.35;0.80;;;18.00;41.00;;;;;;4835944;29;20198;-82
2021/03/02 10:56:44;;;;;;;3.97;0.60;;;17.90;40.90;;;;;;4835933;29;20565;-81
2021/03/02 11:12:49;;;;;;;4.18;0.80;;;18.10;40.40;;;;;;4886183;29;20164;-81
2021/03/02 11:15:15;;;;;;;1.88;0.63;;;18.10;41.10;;;;;;4872161;29;20520;-81
2021/03/02 11:17:50;;;;;;;0.98;0.63;;;18.00;41.30;;;;;;4886957;29;20623;-81
2021/03/02 11:20:17;;;;;;;1.33;0.70;;;18.00;41.30;;;;;;4887993;29;20172;-82
2021/03/02 11:22:44;;;;;;;0.65;0.57;;;18.00;41.30;;;;;;4870930;29;20179;-82
2021/03/02 11:25:17;;;;;;;1.13;0.70;;;18.00;41.40;;;;;;4886836;29;20249;-81
2021/03/02 11:27:52;;;;;;;5.13;0.80;;;17.90;41.20;;;;;;4856543;29;20169;-83
2021/03/02 11:30:20;;;;;;;1.88;0.77;;;18.00;41.40;;;;;;4870092;29;20184;-81
2021/03/02 11:32:47;;;;;;;1.20;0.70;;;18.00;41.40;;;;;;4870388;29;20172;-81
2021/03/02 11:35:15;;;;;;;2.33;0.70;;;18.00;41.00;;;;;;4869693;29;20679;-83
2021/03/02 11:37:45;;;;;;;1.38;0.80;;;17.90;41.20;;;;;;4871381;29;20218;-82
2021/03/02 11:44:22;;;;;;;1.48;0.63;;;17.90;41.20;;;;;;4930237;29;20256;-81
2021/03/02 11:47:13;;;;;;;3.78;0.90;;;18.00;41.10;;;;;;4854900;29;20193;-82
2021/03/02 11:53:33;;;;;;;14.52;1.00;;;18.00;41.20;;;;;;4850470;29;20177;-81
2021/03/02 11:57:13;;;;;;;2.85;0.90;;;18.00;41.10;;;;;;4833980;29;20177;-81
2021/03/02 11:59:40;;;;;;;0.85;0.75;;;18.00;41.20;;;;;;4798797;29;20186;-81
2021/03/02 12:02:11;;;;;;;2.08;0.73;;;18.00;41.20;;;;;;4786407;29;20195;-81
2021/03/02 12:04:38;;;;;;;0.77;0.65;;;18.10;41.30;;;;;;4786815;29;20215;-81
2021/03/02 12:07:04;;;;;;;2.83;0.88;;;18.20;41.10;;;;;;4801460;29;20182;-81
2021/03/02 12:09:31;;;;;;;1.23;0.60;;;18.20;41.00;;;;;;4801073;29;20185;-81
2021/03/02 12:11:57;;;;;;;1.55;0.60;;;18.20;40.70;;;;;;4787211;29;20178;-81
2021/03/02 12:14:46;;;;;;;2.20;0.57;;;18.20;40.70;;;;;;4801292;29;20191;-81
2021/03/02 12:17:49;;;;;;;1.40;0.80;;;18.30;40.60;;;;;;4786463;29;20202;-81
2021/03/02 12:27:15;;;;;;;1.08;0.65;;;18.20;40.50;;;;;;4799257;30;20240;-81
2021/03/02 12:43:28;;;;;;;2.92;0.77;;;18.20;40.20;;;;;;4815224;29;20213;-80
2021/03/02 12:46:12;;;;;;;1.08;0.50;;;18.30;40.10;;;;;;4794582;29;20213;-81
2021/03/02 12:49:03;;;;;;;2.05;0.70;;;18.30;39.80;;;;;;4814543;29;20295;-81
2021/03/02 12:51:58;;;;;;;0.68;0.65;;;18.30;40.00;;;;;;4797990;29;20621;-82
2021/03/02 12:54:57;;;;;;;1.25;0.70;;;18.20;39.80;;;;;;4813836;29;20672;-83
2021/03/02 12:57:59;;;;;;;1.88;0.98;;;18.30;39.60;;;;;;4795540;30;20198;-82
2021/03/02 13:01:23;;;;;;;1.95;0.90;;;18.30;39.60;;;;;;4778840;30;20167;-82
2021/03/02 13:04:07;;;;;;;0.82;0.70;;;18.40;39.30;;;;;;4821815;29;20216;-80
2021/03/02 13:10:39;;;;;;;4.13;0.63;;;18.40;39.10;;;;;;4911056;29;20177;-82
2021/03/02 13:17:23;;;;;;;1.98;0.82;;;18.10;39.60;;;;;;4907215;29;20177;-83
2021/03/02 13:21:02;;;;;;;2.70;0.80;;;18.20;39.20;;;;;;4905070;29;20195;-82
2021/03/02 13:34:10;;;;;;;4.20;0.60;;;18.40;38.50;;;;;;4755524;30;20246;-83
2021/03/02 13:37:41;;;;;;;;;;;;;;;;;;;;;
2021/03/02 13:46:54;;;;;;;14.80;2.10;;;18.40;38.40;;;;;;4742278;30;20365;-82
2021/03/02 13:49:50;;;;;;;17.45;1.63;;;18.40;38.70;;;;;;4759013;30;20192;-82
2021/03/02 13:52:19;;;;;;;15.27;1.60;;;18.30;38.60;;;;;;4783580;30;20187;-82
2021/03/02 13:55:22;;;;;;;20.98;1.27;;;18.30;38.60;;;;;;4765819;30;20196;-82
2021/03/02 13:57:50;;;;;;;7.75;0.85;;;18.30;38.40;;;;;;4804525;29;20600;-82
2021/03/02 14:11:13;;;;;;;11.40;1.30;;;18.30;38.20;;;;;;4929334;29;20284;-82
2021/03/02 14:13:54;;;;;;;7.90;0.80;;;18.30;38.10;;;;;;4892014;29;20192;-80
2021/03/02 14:16:20;;;;;;;9.98;0.80;;;18.20;37.90;;;;;;4893318;29;20180;-80
2021/03/02 14:18:50;;;;;;;6.60;0.95;;;18.30;37.90;;;;;;4890850;29;20219;-82
2021/03/02 14:21:15;;;;;;;13.52;1.65;;;18.20;38.00;;;;;;4874445;29;20187;-82
2021/03/02 14:23:45;;;;;;;11.50;1.33;;;18.30;37.90;;;;;;4888842;29;20216;-82
2021/03/02 14:26:11;;;;;;;10.82;1.38;;;18.20;37.40;;;;;;4875526;29;20168;-82
2021/03/02 14:28:38;;;;;;;18.95;1.83;;;18.20;37.20;;;;;;4888067;29;20774;-82
2021/03/02 14:31:06;;;;;;;28.52;2.95;;;18.30;37.40;;;;;;4906209;29;20220;-82
2021/03/02 14:33:37;;;;;;;34.22;2.60;;;18.30;37.50;;;;;;4890622;29;20182;-83
2021/03/02 14:36:06;;;;;;;18.88;1.70;;;18.30;37.40;;;;;;4905969;29;20633;-83
2021/03/02 14:38:43;;;;;;;14.27;1.33;;;18.30;37.20;;;;;;4908916;29;20167;-82
2021/03/02 14:45:15;;;;;;;;;;;;;;;;;;;;;
2021/03/02 14:47:58;;;;;;;11.82;1.65;;;18.30;37.20;;;;;;4908173;29;20314;-83
2021/03/02 14:53:51;;;;;;;19.38;1.40;;;18.40;36.90;;;;;;4960784;29;20177;-82
2021/03/02 14:56:22;;;;;;;13.52;1.42;;;18.40;36.70;;;;;;4914136;29;20169;-82
2021/03/02 14:58:48;;;;;;;17.75;1.60;;;18.40;36.60;;;;;;4914183;29;20163;-83
2021/03/02 15:01:15;;;;;;;15.40;1.33;;;18.40;37.00;;;;;;4930458;29;20189;-82
2021/03/02 15:03:44;;;;;;;12.50;1.17;;;18.30;37.10;;;;;;4945683;29;20202;-82
2021/03/02 15:06:13;;;;;;;9.00;1.35;;;18.20;37.10;;;;;;4950759;29;20169;-81
2021/03/02 15:08:40;;;;;;;6.93;1.27;;;18.30;37.00;;;;;;4931686;29;20174;-81
2021/03/02 15:11:06;;;;;;;8.52;1.20;;;18.30;37.10;;;;;;4946887;29;20150;-82
2021/03/02 15:13:33;;;;;;;11.73;1.30;;;18.30;37.10;;;;;;4949881;29;20170;-82
2021/03/02 15:15:59;;;;;;;11.55;1.30;;;18.40;36.90;;;;;;4946064;29;20154;-82
2021/03/02 15:18:29;;;;;;;13.35;1.52;;;18.40;36.70;;;;;;4931526;29;20236;-79
2021/03/02 15:21:08;;;;;;;14.57;1.35;;;18.30;36.70;;;;;;4950338;29;20189;-82
2021/03/02 15:23:41;;;;;;;21.10;1.75;;;18.30;37.40;;;;;;4959263;29;20288;-82